Wetterdaten: aktuell Mittwoch, 02.09.2026 11:15
Datum Zeit Temp. A. Feuchte A. Luftdruck Regen Wind Richtung Richtung Taupunkt Windchill Windböen
02.09.2026 11:15 19,4 °C 67 % 1021,6 hPa 0,0 mm 6,5 km/h (2 Bft) W 272 ° 13,1 °C 19,4 °C 16,1 km/h (3 Bft)
02.09.2026 11:10 19,2 °C 68 % 1021,6 hPa 0,0 mm 5,6 km/h (1 Bft) W-NW 292 ° 13,1 °C 19,2 °C 16,1 km/h (3 Bft)
02.09.2026 11:05 19,1 °C 68 % 1021,5 hPa 0,0 mm 5,8 km/h (2 Bft) W-SW 244 ° 13,1 °C 19,1 °C 14,5 km/h (3 Bft)
02.09.2026 11:00 18,9 °C 69 % 1021,7 hPa 0,0 mm 6,9 km/h (2 Bft) W 265 ° 13,1 °C 18,7 °C 16,1 km/h (3 Bft)
02.09.2026 10:55 18,8 °C 68 % 1021,7 hPa 0,0 mm 8,8 km/h (2 Bft) W 278 ° 12,8 °C 17,8 °C 16,1 km/h (3 Bft)
02.09.2026 10:50 18,7 °C 68 % 1021,8 hPa 0,0 mm 9,2 km/h (2 Bft) W 264 ° 12,7 °C 17,5 °C 16,1 km/h (3 Bft)
02.09.2026 10:45 18,8 °C 68 % 1021,9 hPa 0,0 mm 8,5 km/h (2 Bft) W 272 ° 12,8 °C 17,9 °C 16,1 km/h (3 Bft)
02.09.2026 10:40 18,8 °C 68 % 1021,7 hPa 0,0 mm 7,3 km/h (2 Bft) W-SW 253 ° 12,8 °C 18,4 °C 12,9 km/h (3 Bft)
02.09.2026 10:35 18,7 °C 70 % 1021,6 hPa 0,0 mm 6,1 km/h (2 Bft) W 268 ° 13,1 °C 18,7 °C 14,5 km/h (3 Bft)
02.09.2026 10:30 18,5 °C 70 % 1021,6 hPa 0,0 mm 7,1 km/h (2 Bft) W 271 ° 12,9 °C 18,2 °C 14,5 km/h (3 Bft)
02.09.2026 10:25 18,3 °C 72 % 1021,7 hPa 0,0 mm 6,3 km/h (2 Bft) W 268 ° 13,2 °C 18,3 °C 12,9 km/h (3 Bft)
02.09.2026 10:20 17,9 °C 74 % 1021,7 hPa 0,0 mm 6,4 km/h (2 Bft) W 277 ° 13,2 °C 17,9 °C 12,9 km/h (3 Bft)
02.09.2026 10:15 17,7 °C 74 % 1021,6 hPa 0,0 mm 5,9 km/h (2 Bft) W 260 ° 13,0 °C 17,7 °C 12,9 km/h (3 Bft)
02.09.2026 10:10 17,4 °C 75 % 1021,6 hPa 0,0 mm 5,6 km/h (1 Bft) W 266 ° 12,9 °C 17,4 °C 11,3 km/h (2 Bft)
02.09.2026 10:05 17,2 °C 76 % 1021,6 hPa 0,0 mm 2,9 km/h (1 Bft) W 267 ° 12,9 °C 17,2 °C 6,4 km/h (2 Bft)
02.09.2026 10:00 17,1 °C 76 % 1021,6 hPa 0,0 mm 3,7 km/h (1 Bft) W 268 ° 12,8 °C 17,1 °C 6,4 km/h (2 Bft)
02.09.2026 09:55 17,1 °C 75 % 1021,6 hPa 0,0 mm 4,2 km/h (1 Bft) W-NW 284 ° 12,6 °C 17,1 °C 9,7 km/h (2 Bft)
02.09.2026 09:50 17,0 °C 77 % 1021,6 hPa 0,0 mm 3,2 km/h (1 Bft) W-NW 288 ° 12,9 °C 17,0 °C 8,0 km/h (2 Bft)
02.09.2026 09:45 16,8 °C 78 % 1021,6 hPa 0,0 mm 2,8 km/h (1 Bft) W-NW 292 ° 12,9 °C 16,8 °C 11,3 km/h (2 Bft)
02.09.2026 09:40 16,8 °C 78 % 1021,6 hPa 0,0 mm 3,5 km/h (1 Bft) N-NW 340 ° 12,9 °C 16,8 °C 8,0 km/h (2 Bft)
02.09.2026 09:35 16,7 °C 81 % 1021,7 hPa 0,0 mm 1,5 km/h (1 Bft) N-NW 341 ° 13,4 °C 16,7 °C 4,8 km/h (1 Bft)
02.09.2026 09:30 16,8 °C 81 % 1021,7 hPa 0,0 mm 1,0 km/h (0 Bft) N-NW 342 ° 13,5 °C 16,8 °C 4,8 km/h (1 Bft)
02.09.2026 09:25 16,7 °C 78 % 1021,6 hPa 0,0 mm 2,4 km/h (1 Bft) N-NW 341 ° 12,8 °C 16,7 °C 8,0 km/h (2 Bft)
02.09.2026 09:20 16,7 °C 79 % 1021,5 hPa 0,0 mm 0,9 km/h (0 Bft) N-NW 341 ° 13,0 °C 16,7 °C 3,2 km/h (1 Bft)
02.09.2026 09:15 16,7 °C 79 % 1021,5 hPa 0,0 mm 0,5 km/h (0 Bft) N-NW 341 ° 13,0 °C 16,7 °C 4,8 km/h (1 Bft)
02.09.2026 09:10 16,6 °C 79 % 1021,5 hPa 0,0 mm 2,9 km/h (1 Bft) N-NW 341 ° 12,9 °C 16,6 °C 6,4 km/h (2 Bft)
02.09.2026 09:05 16,6 °C 80 % 1021,5 hPa 0,0 mm 2,3 km/h (1 Bft) N-NW 340 ° 13,1 °C 16,6 °C 6,4 km/h (2 Bft)
02.09.2026 09:00 16,4 °C 80 % 1021,4 hPa 0,0 mm 2,0 km/h (1 Bft) N-NW 340 ° 12,9 °C 16,4 °C 6,4 km/h (2 Bft)
02.09.2026 08:55 16,3 °C 81 % 1021,4 hPa 0,0 mm 3,8 km/h (1 Bft) N-NW 340 ° 13,0 °C 16,3 °C 8,0 km/h (2 Bft)
02.09.2026 08:50 16,1 °C 82 % 1021,2 hPa 0,0 mm 3,8 km/h (1 Bft) N-NW 341 ° 13,0 °C 16,1 °C 8,0 km/h (2 Bft)
02.09.2026 08:45 15,8 °C 83 % 1021,1 hPa 0,0 mm 3,2 km/h (1 Bft) N-NW 341 ° 12,9 °C 15,8 °C 8,0 km/h (2 Bft)
02.09.2026 08:40 15,6 °C 85 % 1021,2 hPa 0,0 mm 2,4 km/h (1 Bft) N-NW 343 ° 13,1 °C 15,6 °C 6,4 km/h (2 Bft)
02.09.2026 08:35 15,3 °C 86 % 1021,0 hPa 0,0 mm 2,1 km/h (1 Bft) N-NW 342 ° 13,0 °C 15,3 °C 8,0 km/h (2 Bft)
02.09.2026 08:30 15,0 °C 86 % 1021,0 hPa 0,0 mm 2,0 km/h (1 Bft) N-NW 343 ° 12,7 °C 15,0 °C 4,8 km/h (1 Bft)
02.09.2026 08:25 14,7 °C 87 % 1021,0 hPa 0,0 mm 0,5 km/h (0 Bft) N-NW 343 ° 12,6 °C 14,7 °C 3,2 km/h (1 Bft)
02.09.2026 08:20 14,4 °C 88 % 1021,0 hPa 0,0 mm 0,7 km/h (0 Bft) N-NW 343 ° 12,4 °C 14,4 °C 3,2 km/h (1 Bft)
02.09.2026 08:15 14,1 °C 89 % 1021,0 hPa 0,0 mm 1,0 km/h (0 Bft) N-NW 342 ° 12,3 °C 14,1 °C 4,8 km/h (1 Bft)
02.09.2026 08:10 13,8 °C 91 % 1020,9 hPa 0,0 mm 2,0 km/h (1 Bft) N-NW 342 ° 12,4 °C 13,8 °C 6,4 km/h (2 Bft)
02.09.2026 08:05 13,4 °C 92 % 1021,0 hPa 0,0 mm 0,8 km/h (0 Bft) N-NW 342 ° 12,1 °C 13,4 °C 6,4 km/h (2 Bft)
02.09.2026 08:00 13,2 °C 92 % 1021,1 hPa 0,0 mm 0,0 km/h (0 Bft) N-NO 22 ° 11,9 °C 13,2 °C 0,0 km/h (0 Bft)
02.09.2026 07:55 13,1 °C 92 % 1021,0 hPa 0,0 mm 0,0 km/h (0 Bft) N-NO 23 ° 11,8 °C 13,1 °C 0,0 km/h (0 Bft)
02.09.2026 07:50 13,1 °C 92 % 1020,9 hPa 0,0 mm 0,0 km/h (0 Bft) N-NO 23 ° 11,8 °C 13,1 °C 0,0 km/h (0 Bft)
02.09.2026 07:45 13,1 °C 92 % 1020,8 hPa 0,0 mm 0,0 km/h (0 Bft) N-NO 23 ° 11,8 °C 13,1 °C 0,0 km/h (0 Bft)
02.09.2026 07:40 13,1 °C 92 % 1020,8 hPa 0,0 mm 0,0 km/h (0 Bft) N-NO 23 ° 11,8 °C 13,1 °C 0,0 km/h (0 Bft)
02.09.2026 07:35 13,1 °C 92 % 1020,6 hPa 0,0 mm 0,0 km/h (0 Bft) N-NO 23 ° 11,8 °C 13,1 °C 0,0 km/h (0 Bft)
02.09.2026 07:30 13,2 °C 92 % 1020,5 hPa 0,0 mm 0,0 km/h (0 Bft) N-NO 23 ° 11,9 °C 13,2 °C 0,0 km/h (0 Bft)
02.09.2026 07:25 13,2 °C 92 % 1020,5 hPa 0,0 mm 0,0 km/h (0 Bft) N-NO 23 ° 11,9 °C 13,2 °C 0,0 km/h (0 Bft)
02.09.2026 07:20 13,2 °C 92 % 1020,4 hPa 0,0 mm 0,0 km/h (0 Bft) N-NO 23 ° 11,9 °C 13,2 °C 0,0 km/h (0 Bft)
02.09.2026 07:15 13,2 °C 92 % 1020,3 hPa 0,0 mm 0,0 km/h (0 Bft) N-NO 23 ° 11,9 °C 13,2 °C 0,0 km/h (0 Bft)
02.09.2026 07:10 13,2 °C 92 % 1020,3 hPa 0,0 mm 0,0 km/h (0 Bft) N-NO 23 ° 11,9 °C 13,2 °C 0,0 km/h (0 Bft)
02.09.2026 07:05 13,2 °C 92 % 1020,4 hPa 0,0 mm 0,0 km/h (0 Bft) N-NO 23 ° 11,9 °C 13,2 °C 0,0 km/h (0 Bft)
02.09.2026 07:00 13,2 °C 92 % 1020,4 hPa 0,0 mm 0,0 km/h (0 Bft) N-NO 23 ° 11,9 °C 13,2 °C 0,0 km/h (0 Bft)
02.09.2026 06:55 13,1 °C 92 % 1020,4 hPa 0,0 mm 0,0 km/h (0 Bft) N-NO 23 ° 11,8 °C 13,1 °C 0,0 km/h (0 Bft)
02.09.2026 06:50 13,1 °C 93 % 1020,4 hPa 0,0 mm 0,0 km/h (0 Bft) N-NO 23 ° 12,0 °C 13,1 °C 0,0 km/h (0 Bft)
02.09.2026 06:45 13,0 °C 93 % 1020,4 hPa 0,0 mm 0,0 km/h (0 Bft) N-NO 23 ° 11,9 °C 13,0 °C 0,0 km/h (0 Bft)
02.09.2026 06:40 12,9 °C 93 % 1020,5 hPa 0,0 mm 0,0 km/h (0 Bft) N-NO 26 ° 11,8 °C 12,9 °C 0,0 km/h (0 Bft)
02.09.2026 06:35 12,8 °C 94 % 1020,5 hPa 0,0 mm 0,0 km/h (0 Bft) N 360 ° 11,9 °C 12,8 °C 0,0 km/h (0 Bft)
02.09.2026 06:30 12,7 °C 94 % 1020,5 hPa 0,0 mm 0,0 km/h (0 Bft) N 360 ° 11,8 °C 12,7 °C 0,0 km/h (0 Bft)
02.09.2026 06:25 12,6 °C 94 % 1020,6 hPa 0,0 mm 0,0 km/h (0 Bft) N 360 ° 11,7 °C 12,6 °C 0,0 km/h (0 Bft)
02.09.2026 06:20 12,5 °C 94 % 1020,6 hPa 0,0 mm 0,0 km/h (0 Bft) N 360 ° 11,6 °C 12,5 °C 0,0 km/h (0 Bft)
02.09.2026 06:15 12,4 °C 94 % 1020,4 hPa 0,0 mm 0,0 km/h (0 Bft) N 360 ° 11,5 °C 12,4 °C 0,0 km/h (0 Bft)
02.09.2026 06:10 12,3 °C 94 % 1020,5 hPa 0,0 mm 0,0 km/h (0 Bft) N 360 ° 11,4 °C 12,3 °C 0,0 km/h (0 Bft)
02.09.2026 06:05 12,3 °C 94 % 1020,7 hPa 0,0 mm 0,0 km/h (0 Bft) N 360 ° 11,4 °C 12,3 °C 0,0 km/h (0 Bft)
02.09.2026 06:00 12,2 °C 94 % 1020,8 hPa 0,0 mm 0,0 km/h (0 Bft) N 360 ° 11,3 °C 12,2 °C 0,0 km/h (0 Bft)
02.09.2026 05:55 12,3 °C 94 % 1020,7 hPa 0,0 mm 0,0 km/h (0 Bft) N 360 ° 11,4 °C 12,3 °C 0,0 km/h (0 Bft)
02.09.2026 05:50 12,3 °C 94 % 1020,6 hPa 0,0 mm 0,0 km/h (0 Bft) N 360 ° 11,4 °C 12,3 °C 0,0 km/h (0 Bft)
02.09.2026 05:45 12,3 °C 94 % 1020,7 hPa 0,0 mm 0,0 km/h (0 Bft) N 360 ° 11,4 °C 12,3 °C 0,0 km/h (0 Bft)
02.09.2026 05:40 12,4 °C 94 % 1020,7 hPa 0,0 mm 0,0 km/h (0 Bft) N 360 ° 11,5 °C 12,4 °C 0,0 km/h (0 Bft)
02.09.2026 05:35 12,4 °C 93 % 1020,6 hPa 0,0 mm 0,0 km/h (0 Bft) N 360 ° 11,3 °C 12,4 °C 0,0 km/h (0 Bft)
02.09.2026 05:30 12,4 °C 93 % 1020,6 hPa 0,0 mm 0,0 km/h (0 Bft) N 360 ° 11,3 °C 12,4 °C 0,0 km/h (0 Bft)
02.09.2026 05:25 12,5 °C 93 % 1020,6 hPa 0,0 mm 0,0 km/h (0 Bft) N 360 ° 11,4 °C 12,5 °C 0,0 km/h (0 Bft)
02.09.2026 05:20 12,6 °C 93 % 1020,5 hPa 0,0 mm 0,0 km/h (0 Bft) N 360 ° 11,5 °C 12,6 °C 0,0 km/h (0 Bft)
02.09.2026 05:15 12,6 °C 93 % 1020,6 hPa 0,0 mm 0,0 km/h (0 Bft) N 360 ° 11,5 °C 12,6 °C 0,0 km/h (0 Bft)
02.09.2026 05:10 12,6 °C 93 % 1020,5 hPa 0,0 mm 0,0 km/h (0 Bft) N 360 ° 11,5 °C 12,6 °C 0,0 km/h (0 Bft)
02.09.2026 05:05 12,6 °C 93 % 1020,6 hPa 0,0 mm 0,0 km/h (0 Bft) N 360 ° 11,5 °C 12,6 °C 0,0 km/h (0 Bft)
02.09.2026 05:00 12,6 °C 94 % 1020,5 hPa 0,0 mm 0,0 km/h (0 Bft) N 360 ° 11,7 °C 12,6 °C 0,0 km/h (0 Bft)
02.09.2026 04:55 12,6 °C 94 % 1020,7 hPa 0,0 mm 0,0 km/h (0 Bft) N 360 ° 11,7 °C 12,6 °C 0,0 km/h (0 Bft)
02.09.2026 04:50 12,6 °C 94 % 1020,9 hPa 0,0 mm 0,0 km/h (0 Bft) N 360 ° 11,7 °C 12,6 °C 0,0 km/h (0 Bft)
02.09.2026 04:45 12,6 °C 94 % 1020,8 hPa 0,0 mm 0,0 km/h (0 Bft) N 360 ° 11,7 °C 12,6 °C 0,0 km/h (0 Bft)
02.09.2026 04:40 12,5 °C 94 % 1020,8 hPa 0,0 mm 0,0 km/h (0 Bft) N 360 ° 11,6 °C 12,5 °C 0,0 km/h (0 Bft)
02.09.2026 04:35 12,5 °C 94 % 1020,9 hPa 0,0 mm 0,0 km/h (0 Bft) N 360 ° 11,6 °C 12,5 °C 0,0 km/h (0 Bft)
02.09.2026 04:30 12,4 °C 94 % 1020,9 hPa 0,0 mm 0,0 km/h (0 Bft) N 360 ° 11,5 °C 12,4 °C 0,0 km/h (0 Bft)
02.09.2026 04:25 12,4 °C 94 % 1021,1 hPa 0,0 mm 0,0 km/h (0 Bft) N 360 ° 11,5 °C 12,4 °C 0,0 km/h (0 Bft)
02.09.2026 04:20 12,4 °C 94 % 1021,1 hPa 0,0 mm 0,0 km/h (0 Bft) N 360 ° 11,5 °C 12,4 °C 0,0 km/h (0 Bft)
02.09.2026 04:15 12,3 °C 94 % 1021,1 hPa 0,0 mm 0,0 km/h (0 Bft) N 360 ° 11,4 °C 12,3 °C 0,0 km/h (0 Bft)
02.09.2026 04:10 12,3 °C 94 % 1021,2 hPa 0,0 mm 0,0 km/h (0 Bft) N 360 ° 11,4 °C 12,3 °C 0,0 km/h (0 Bft)
02.09.2026 04:05 12,3 °C 94 % 1021,0 hPa 0,0 mm 0,0 km/h (0 Bft) N 360 ° 11,4 °C 12,3 °C 0,0 km/h (0 Bft)
02.09.2026 04:00 12,2 °C 94 % 1021,0 hPa 0,0 mm 0,0 km/h (0 Bft) N 360 ° 11,3 °C 12,2 °C 0,0 km/h (0 Bft)
02.09.2026 03:55 12,2 °C 94 % 1020,9 hPa 0,0 mm 0,0 km/h (0 Bft) N 360 ° 11,3 °C 12,2 °C 0,0 km/h (0 Bft)
02.09.2026 03:50 12,1 °C 94 % 1020,9 hPa 0,0 mm 0,0 km/h (0 Bft) N 360 ° 11,2 °C 12,1 °C 0,0 km/h (0 Bft)
02.09.2026 03:45 12,1 °C 94 % 1020,9 hPa 0,0 mm 0,0 km/h (0 Bft) N 360 ° 11,2 °C 12,1 °C 0,0 km/h (0 Bft)
02.09.2026 03:40 12,1 °C 93 % 1020,9 hPa 0,0 mm 0,0 km/h (0 Bft) N 360 ° 11,0 °C 12,1 °C 0,0 km/h (0 Bft)
02.09.2026 03:35 12,1 °C 94 % 1020,9 hPa 0,0 mm 0,0 km/h (0 Bft) N 360 ° 11,2 °C 12,1 °C 0,0 km/h (0 Bft)
02.09.2026 03:30 12,1 °C 94 % 1021,0 hPa 0,0 mm 0,0 km/h (0 Bft) N 360 ° 11,2 °C 12,1 °C 0,0 km/h (0 Bft)
02.09.2026 03:25 12,1 °C 93 % 1021,0 hPa 0,0 mm 0,0 km/h (0 Bft) N 360 ° 11,0 °C 12,1 °C 0,0 km/h (0 Bft)
02.09.2026 03:20 12,1 °C 93 % 1021,1 hPa 0,0 mm 0,0 km/h (0 Bft) N 360 ° 11,0 °C 12,1 °C 0,0 km/h (0 Bft)
02.09.2026 03:15 12,2 °C 93 % 1021,1 hPa 0,0 mm 0,0 km/h (0 Bft) N 360 ° 11,1 °C 12,2 °C 0,0 km/h (0 Bft)
02.09.2026 03:10 12,2 °C 93 % 1021,0 hPa 0,0 mm 0,0 km/h (0 Bft) N 360 ° 11,1 °C 12,2 °C 0,0 km/h (0 Bft)
02.09.2026 03:05 12,2 °C 93 % 1021,0 hPa 0,0 mm 0,0 km/h (0 Bft) N 360 ° 11,1 °C 12,2 °C 0,0 km/h (0 Bft)
02.09.2026 03:00 12,2 °C 93 % 1021,0 hPa 0,0 mm 0,0 km/h (0 Bft) N 360 ° 11,1 °C 12,2 °C 0,0 km/h (0 Bft)
02.09.2026 02:55 12,2 °C 93 % 1020,9 hPa 0,0 mm 0,0 km/h (0 Bft) N 360 ° 11,1 °C 12,2 °C 0,0 km/h (0 Bft)
02.09.2026 02:50 12,2 °C 93 % 1020,9 hPa 0,0 mm 0,0 km/h (0 Bft) N 360 ° 11,1 °C 12,2 °C 0,0 km/h (0 Bft)
02.09.2026 02:45 12,3 °C 93 % 1020,9 hPa 0,0 mm 0,0 km/h (0 Bft) N 360 ° 11,2 °C 12,3 °C 0,0 km/h (0 Bft)
02.09.2026 02:40 12,3 °C 93 % 1020,9 hPa 0,0 mm 0,0 km/h (0 Bft) N 360 ° 11,2 °C 12,3 °C 0,0 km/h (0 Bft)
02.09.2026 02:35 12,3 °C 93 % 1020,9 hPa 0,0 mm 0,0 km/h (0 Bft) N 360 ° 11,2 °C 12,3 °C 0,0 km/h (0 Bft)
02.09.2026 02:30 12,3 °C 93 % 1021,0 hPa 0,0 mm 0,0 km/h (0 Bft) N 360 ° 11,2 °C 12,3 °C 0,0 km/h (0 Bft)
02.09.2026 02:25 12,4 °C 93 % 1021,0 hPa 0,0 mm 0,0 km/h (0 Bft) N 360 ° 11,3 °C 12,4 °C 0,0 km/h (0 Bft)
02.09.2026 02:20 12,4 °C 93 % 1020,9 hPa 0,0 mm 0,0 km/h (0 Bft) N 360 ° 11,3 °C 12,4 °C 0,0 km/h (0 Bft)
02.09.2026 02:15 12,4 °C 92 % 1021,0 hPa 0,0 mm 0,0 km/h (0 Bft) N 360 ° 11,1 °C 12,4 °C 0,0 km/h (0 Bft)
02.09.2026 02:10 12,4 °C 93 % 1020,9 hPa 0,0 mm 0,0 km/h (0 Bft) N 360 ° 11,3 °C 12,4 °C 0,0 km/h (0 Bft)
02.09.2026 02:05 12,5 °C 92 % 1020,9 hPa 0,0 mm 0,0 km/h (0 Bft) N 360 ° 11,2 °C 12,5 °C 0,0 km/h (0 Bft)
02.09.2026 02:00 12,5 °C 92 % 1020,9 hPa 0,0 mm 0,0 km/h (0 Bft) N 360 ° 11,2 °C 12,5 °C 0,0 km/h (0 Bft)
02.09.2026 01:55 12,6 °C 92 % 1021,0 hPa 0,0 mm 0,0 km/h (0 Bft) N 360 ° 11,3 °C 12,6 °C 0,0 km/h (0 Bft)
02.09.2026 01:50 12,7 °C 92 % 1021,0 hPa 0,0 mm 0,0 km/h (0 Bft) N 360 ° 11,4 °C 12,7 °C 0,0 km/h (0 Bft)
02.09.2026 01:45 12,8 °C 92 % 1020,8 hPa 0,0 mm 0,0 km/h (0 Bft) N 360 ° 11,5 °C 12,8 °C 0,0 km/h (0 Bft)
02.09.2026 01:40 12,9 °C 91 % 1020,9 hPa 0,0 mm 0,0 km/h (0 Bft) N 360 ° 11,5 °C 12,9 °C 0,0 km/h (0 Bft)
02.09.2026 01:35 13,0 °C 92 % 1020,9 hPa 0,0 mm 0,0 km/h (0 Bft) N 360 ° 11,7 °C 13,0 °C 0,0 km/h (0 Bft)
02.09.2026 01:30 13,1 °C 92 % 1020,9 hPa 0,0 mm 0,0 km/h (0 Bft) N 360 ° 11,8 °C 13,1 °C 0,0 km/h (0 Bft)
02.09.2026 01:25 13,1 °C 92 % 1020,9 hPa 0,0 mm 0,0 km/h (0 Bft) N 360 ° 11,8 °C 13,1 °C 0,0 km/h (0 Bft)
02.09.2026 01:20 13,1 °C 92 % 1021,0 hPa 0,0 mm 0,0 km/h (0 Bft) N 360 ° 11,8 °C 13,1 °C 0,0 km/h (0 Bft)
02.09.2026 01:15 13,1 °C 92 % 1021,1 hPa 0,0 mm 0,0 km/h (0 Bft) N 360 ° 11,8 °C 13,1 °C 0,0 km/h (0 Bft)
02.09.2026 01:10 13,1 °C 92 % 1021,2 hPa 0,0 mm 0,0 km/h (0 Bft) N 360 ° 11,8 °C 13,1 °C 0,0 km/h (0 Bft)
02.09.2026 01:05 13,1 °C 92 % 1021,1 hPa 0,0 mm 0,0 km/h (0 Bft) N 360 ° 11,8 °C 13,1 °C 0,0 km/h (0 Bft)
02.09.2026 01:00 13,1 °C 91 % 1021,2 hPa 0,0 mm 0,0 km/h (0 Bft) N 360 ° 11,7 °C 13,1 °C 0,0 km/h (0 Bft)
02.09.2026 00:55 13,1 °C 91 % 1021,2 hPa 0,0 mm 0,0 km/h (0 Bft) N 360 ° 11,7 °C 13,1 °C 0,0 km/h (0 Bft)
02.09.2026 00:50 13,2 °C 91 % 1021,3 hPa 0,0 mm 0,0 km/h (0 Bft) N 360 ° 11,8 °C 13,2 °C 0,0 km/h (0 Bft)
02.09.2026 00:45 13,2 °C 91 % 1021,5 hPa 0,0 mm 0,0 km/h (0 Bft) N 360 ° 11,8 °C 13,2 °C 0,0 km/h (0 Bft)
02.09.2026 00:40 13,3 °C 91 % 1021,6 hPa 0,0 mm 0,0 km/h (0 Bft) N 360 ° 11,9 °C 13,3 °C 0,0 km/h (0 Bft)
02.09.2026 00:35 13,4 °C 90 % 1021,5 hPa 0,0 mm 0,0 km/h (0 Bft) N 360 ° 11,8 °C 13,4 °C 0,0 km/h (0 Bft)
02.09.2026 00:30 13,4 °C 90 % 1021,5 hPa 0,0 mm 0,0 km/h (0 Bft) N-NO 22 ° 11,8 °C 13,4 °C 0,0 km/h (0 Bft)
02.09.2026 00:25 13,5 °C 90 % 1021,6 hPa 0,0 mm 0,0 km/h (0 Bft) N-NO 22 ° 11,9 °C 13,5 °C 0,0 km/h (0 Bft)
02.09.2026 00:20 13,6 °C 90 % 1021,5 hPa 0,0 mm 0,0 km/h (0 Bft) N-NO 22 ° 12,0 °C 13,6 °C 0,0 km/h (0 Bft)
02.09.2026 00:15 13,6 °C 90 % 1021,4 hPa 0,0 mm 0,0 km/h (0 Bft) N-NO 22 ° 12,0 °C 13,6 °C 0,0 km/h (0 Bft)
02.09.2026 00:10 13,7 °C 89 % 1021,4 hPa 0,0 mm 0,0 km/h (0 Bft) N-NO 22 ° 11,9 °C 13,7 °C 0,0 km/h (0 Bft)
02.09.2026 00:05 13,8 °C 89 % 1021,4 hPa 0,0 mm 0,0 km/h (0 Bft) N-NO 22 ° 12,0 °C 13,8 °C 0,0 km/h (0 Bft)
02.09.2026 00:00 13,9 °C 89 % 1021,3 hPa 0,0 mm 0,0 km/h (0 Bft) N-NO 22 ° 12,1 °C 13,9 °C 0,0 km/h (0 Bft)
01.09.2026 23:55 14,0 °C 89 % 1021,3 hPa 0,0 mm 0,0 km/h (0 Bft) N-NO 22 ° 12,2 °C 14,0 °C 0,0 km/h (0 Bft)
01.09.2026 23:50 14,1 °C 89 % 1021,3 hPa 0,0 mm 0,0 km/h (0 Bft) N-NO 23 ° 12,3 °C 14,1 °C 0,0 km/h (0 Bft)
01.09.2026 23:45 14,1 °C 89 % 1021,3 hPa 0,0 mm 0,0 km/h (0 Bft) N-NO 24 ° 12,3 °C 14,1 °C 0,0 km/h (0 Bft)
01.09.2026 23:40 14,2 °C 88 % 1021,3 hPa 0,0 mm 0,0 km/h (0 Bft) N-NO 26 ° 12,2 °C 14,2 °C 0,0 km/h (0 Bft)
01.09.2026 23:35 14,3 °C 88 % 1021,4 hPa 0,0 mm 0,0 km/h (0 Bft) N-NO 24 ° 12,3 °C 14,3 °C 0,0 km/h (0 Bft)
01.09.2026 23:30 14,3 °C 88 % 1021,3 hPa 0,0 mm 0,0 km/h (0 Bft) N 360 ° 12,3 °C 14,3 °C 0,0 km/h (0 Bft)
01.09.2026 23:25 14,4 °C 88 % 1021,3 hPa 0,0 mm 0,0 km/h (0 Bft) N 360 ° 12,4 °C 14,4 °C 0,0 km/h (0 Bft)
01.09.2026 23:20 14,4 °C 88 % 1021,3 hPa 0,0 mm 0,0 km/h (0 Bft) N-NO 27 ° 12,4 °C 14,4 °C 0,0 km/h (0 Bft)
01.09.2026 23:15 14,5 °C 88 % 1021,2 hPa 0,0 mm 0,0 km/h (0 Bft) N-NO 22 ° 12,5 °C 14,5 °C 0,0 km/h (0 Bft)
01.09.2026 23:10 14,6 °C 88 % 1021,3 hPa 0,0 mm 0,0 km/h (0 Bft) N-NO 22 ° 12,6 °C 14,6 °C 0,0 km/h (0 Bft)
01.09.2026 23:05 14,6 °C 87 % 1021,3 hPa 0,0 mm 0,0 km/h (0 Bft) N-NO 22 ° 12,5 °C 14,6 °C 0,0 km/h (0 Bft)
01.09.2026 23:00 14,7 °C 87 % 1021,2 hPa 0,0 mm 0,0 km/h (0 Bft) N-NO 22 ° 12,6 °C 14,7 °C 0,0 km/h (0 Bft)
01.09.2026 22:55 14,7 °C 87 % 1021,2 hPa 0,0 mm 0,0 km/h (0 Bft) N-NO 22 ° 12,6 °C 14,7 °C 0,0 km/h (0 Bft)
01.09.2026 22:50 14,7 °C 87 % 1021,4 hPa 0,0 mm 0,0 km/h (0 Bft) N-NO 22 ° 12,6 °C 14,7 °C 0,0 km/h (0 Bft)
01.09.2026 22:45 14,8 °C 87 % 1021,3 hPa 0,0 mm 0,0 km/h (0 Bft) N-NO 22 ° 12,7 °C 14,8 °C 0,0 km/h (0 Bft)
01.09.2026 22:40 14,8 °C 87 % 1021,3 hPa 0,0 mm 0,0 km/h (0 Bft) N-NO 23 ° 12,7 °C 14,8 °C 0,0 km/h (0 Bft)
01.09.2026 22:35 14,9 °C 86 % 1021,2 hPa 0,0 mm 0,0 km/h (0 Bft) N-NO 22 ° 12,6 °C 14,9 °C 0,0 km/h (0 Bft)
01.09.2026 22:30 15,0 °C 86 % 1021,2 hPa 0,0 mm 0,0 km/h (0 Bft) N-NO 23 ° 12,7 °C 15,0 °C 0,0 km/h (0 Bft)
01.09.2026 22:25 15,1 °C 86 % 1021,2 hPa 0,0 mm 0,0 km/h (0 Bft) N-NO 23 ° 12,8 °C 15,1 °C 0,0 km/h (0 Bft)
01.09.2026 22:20 15,2 °C 86 % 1021,1 hPa 0,0 mm 0,0 km/h (0 Bft) N-NO 23 ° 12,9 °C 15,2 °C 0,0 km/h (0 Bft)
01.09.2026 22:15 15,2 °C 85 % 1021,2 hPa 0,0 mm 0,0 km/h (0 Bft) N-NO 23 ° 12,7 °C 15,2 °C 0,0 km/h (0 Bft)
01.09.2026 22:10 15,3 °C 86 % 1021,2 hPa 0,0 mm 0,0 km/h (0 Bft) N-NO 23 ° 13,0 °C 15,3 °C 0,0 km/h (0 Bft)
01.09.2026 22:05 15,4 °C 85 % 1021,1 hPa 0,0 mm 0,0 km/h (0 Bft) N-NO 23 ° 12,9 °C 15,4 °C 0,0 km/h (0 Bft)
01.09.2026 22:00 15,5 °C 85 % 1021,3 hPa 0,0 mm 0,0 km/h (0 Bft) N-NO 23 ° 13,0 °C 15,5 °C 0,0 km/h (0 Bft)
01.09.2026 21:55 15,6 °C 85 % 1021,3 hPa 0,0 mm 0,0 km/h (0 Bft) N-NO 24 ° 13,1 °C 15,6 °C 0,0 km/h (0 Bft)
01.09.2026 21:50 15,7 °C 84 % 1021,4 hPa 0,0 mm 0,0 km/h (0 Bft) N-NO 24 ° 13,0 °C 15,7 °C 0,0 km/h (0 Bft)
01.09.2026 21:45 15,8 °C 84 % 1021,3 hPa 0,0 mm 0,0 km/h (0 Bft) N-NO 24 ° 13,1 °C 15,8 °C 0,0 km/h (0 Bft)
01.09.2026 21:40 15,9 °C 84 % 1021,4 hPa 0,0 mm 0,0 km/h (0 Bft) N-NO 24 ° 13,2 °C 15,9 °C 0,0 km/h (0 Bft)
01.09.2026 21:35 16,1 °C 83 % 1021,2 hPa 0,0 mm 0,0 km/h (0 Bft) N-NO 24 ° 13,2 °C 16,1 °C 0,0 km/h (0 Bft)
01.09.2026 21:30 16,3 °C 83 % 1021,2 hPa 0,0 mm 0,0 km/h (0 Bft) N-NO 24 ° 13,4 °C 16,3 °C 0,0 km/h (0 Bft)
01.09.2026 21:25 16,6 °C 82 % 1021,2 hPa 0,0 mm 0,0 km/h (0 Bft) N-NO 24 ° 13,5 °C 16,6 °C 0,0 km/h (0 Bft)
01.09.2026 21:20 16,8 °C 81 % 1021,1 hPa 0,0 mm 0,0 km/h (0 Bft) N-NO 24 ° 13,5 °C 16,8 °C 0,0 km/h (0 Bft)
01.09.2026 21:15 17,1 °C 80 % 1021,1 hPa 0,0 mm 0,0 km/h (0 Bft) N-NO 24 ° 13,6 °C 17,1 °C 0,0 km/h (0 Bft)
01.09.2026 21:10 17,4 °C 79 % 1021,1 hPa 0,0 mm 0,0 km/h (0 Bft) N-NO 24 ° 13,7 °C 17,4 °C 0,0 km/h (0 Bft)
01.09.2026 21:05 17,5 °C 79 % 1021,1 hPa 0,0 mm 0,0 km/h (0 Bft) N-NO 24 ° 13,8 °C 17,5 °C 0,0 km/h (0 Bft)
01.09.2026 21:00 17,7 °C 79 % 1021,1 hPa 0,0 mm 0,0 km/h (0 Bft) N-NO 24 ° 14,0 °C 17,7 °C 0,0 km/h (0 Bft)
01.09.2026 20:55 17,8 °C 79 % 1021,1 hPa 0,0 mm 0,0 km/h (0 Bft) N-NO 24 ° 14,1 °C 17,8 °C 0,0 km/h (0 Bft)
01.09.2026 20:50 18,2 °C 78 % 1021,0 hPa 0,0 mm 0,0 km/h (0 Bft) N-NO 24 ° 14,3 °C 18,2 °C 0,0 km/h (0 Bft)
01.09.2026 20:45 18,5 °C 77 % 1021,0 hPa 0,0 mm 0,0 km/h (0 Bft) N-NO 24 ° 14,4 °C 18,5 °C 0,0 km/h (0 Bft)
01.09.2026 20:40 18,8 °C 76 % 1020,9 hPa 0,0 mm 0,0 km/h (0 Bft) N-NO 24 ° 14,5 °C 18,8 °C 0,0 km/h (0 Bft)
01.09.2026 20:35 19,1 °C 75 % 1020,9 hPa 0,0 mm 0,0 km/h (0 Bft) N-NO 24 ° 14,6 °C 19,1 °C 0,0 km/h (0 Bft)
01.09.2026 20:30 19,3 °C 74 % 1020,9 hPa 0,0 mm 0,0 km/h (0 Bft) N-NO 24 ° 14,5 °C 19,3 °C 0,0 km/h (0 Bft)
01.09.2026 20:25 19,5 °C 73 % 1020,8 hPa 0,0 mm 0,0 km/h (0 Bft) N-NO 24 ° 14,5 °C 19,5 °C 0,0 km/h (0 Bft)
01.09.2026 20:20 19,8 °C 73 % 1020,8 hPa 0,0 mm 0,0 km/h (0 Bft) N-NO 24 ° 14,8 °C 19,8 °C 0,0 km/h (0 Bft)
01.09.2026 20:15 20,2 °C 72 % 1020,8 hPa 0,0 mm 0,0 km/h (0 Bft) N-NO 24 ° 15,0 °C 20,2 °C 0,0 km/h (0 Bft)
01.09.2026 20:10 20,3 °C 71 % 1020,8 hPa 0,0 mm 0,0 km/h (0 Bft) N-NO 24 ° 14,9 °C 20,3 °C 0,0 km/h (0 Bft)
01.09.2026 20:05 20,5 °C 70 % 1020,7 hPa 0,0 mm 0,0 km/h (0 Bft) N-NO 24 ° 14,8 °C 20,5 °C 0,0 km/h (0 Bft)
01.09.2026 20:00 20,7 °C 70 % 1020,8 hPa 0,0 mm 0,0 km/h (0 Bft) N-NO 24 ° 15,0 °C 20,7 °C 0,0 km/h (0 Bft)
01.09.2026 19:55 20,9 °C 69 % 1020,8 hPa 0,0 mm 0,0 km/h (0 Bft) N-NO 24 ° 15,0 °C 20,9 °C 0,0 km/h (0 Bft)
01.09.2026 19:50 20,9 °C 68 % 1020,9 hPa 0,0 mm 0,0 km/h (0 Bft) N-NO 24 ° 14,8 °C 20,9 °C 1,6 km/h (1 Bft)
01.09.2026 19:45 21,2 °C 68 % 1020,8 hPa 0,0 mm 0,0 km/h (0 Bft) N-NO 24 ° 15,1 °C 21,2 °C 0,0 km/h (0 Bft)
01.09.2026 19:40 21,3 °C 67 % 1020,7 hPa 0,0 mm 2,9 km/h (1 Bft) N-NO 25 ° 14,9 °C 21,3 °C 8,0 km/h (2 Bft)
01.09.2026 19:35 21,5 °C 66 % 1020,7 hPa 0,0 mm 3,5 km/h (1 Bft) N-NO 26 ° 14,9 °C 21,5 °C 6,4 km/h (2 Bft)
01.09.2026 19:30 21,8 °C 65 % 1020,6 hPa 0,0 mm 2,1 km/h (1 Bft) N-NO 28 ° 14,9 °C 21,8 °C 8,0 km/h (2 Bft)
01.09.2026 19:25 21,9 °C 64 % 1020,6 hPa 0,0 mm 3,0 km/h (1 Bft) N-NO 33 ° 14,8 °C 21,9 °C 9,7 km/h (2 Bft)
01.09.2026 19:20 21,9 °C 65 % 1020,5 hPa 0,0 mm 1,2 km/h (1 Bft) N-NO 29 ° 15,0 °C 21,9 °C 4,8 km/h (1 Bft)
01.09.2026 19:15 21,8 °C 65 % 1020,4 hPa 0,0 mm 3,1 km/h (1 Bft) N-NO 31 ° 14,9 °C 21,8 °C 9,7 km/h (2 Bft)
01.09.2026 19:10 21,8 °C 67 % 1020,5 hPa 0,0 mm 2,6 km/h (1 Bft) N-NO 29 ° 15,4 °C 21,8 °C 9,7 km/h (2 Bft)
01.09.2026 19:05 21,7 °C 67 % 1020,4 hPa 0,0 mm 1,9 km/h (1 Bft) N-NO 17 ° 15,3 °C 21,7 °C 6,4 km/h (2 Bft)
01.09.2026 19:00 21,7 °C 67 % 1020,4 hPa 0,0 mm 1,2 km/h (1 Bft) N 11 ° 15,3 °C 21,7 °C 11,3 km/h (2 Bft)
01.09.2026 18:55 21,5 °C 68 % 1020,4 hPa 0,0 mm 0,8 km/h (0 Bft) N-NW 333 ° 15,3 °C 21,5 °C 3,2 km/h (1 Bft)
01.09.2026 18:50 21,5 °C 67 % 1020,4 hPa 0,0 mm 1,1 km/h (1 Bft) N-NW 333 ° 15,1 °C 21,5 °C 4,8 km/h (1 Bft)
01.09.2026 18:45 21,6 °C 67 % 1020,5 hPa 0,0 mm 1,4 km/h (1 Bft) N-NW 329 ° 15,2 °C 21,6 °C 4,8 km/h (1 Bft)
01.09.2026 18:40 21,6 °C 66 % 1020,5 hPa 0,0 mm 3,0 km/h (1 Bft) N-NW 329 ° 15,0 °C 21,6 °C 6,4 km/h (2 Bft)
01.09.2026 18:35 21,6 °C 66 % 1020,5 hPa 0,0 mm 3,9 km/h (1 Bft) N-NW 327 ° 15,0 °C 21,6 °C 9,7 km/h (2 Bft)
01.09.2026 18:30 21,9 °C 66 % 1020,5 hPa 0,0 mm 3,7 km/h (1 Bft) NW 323 ° 15,3 °C 21,9 °C 9,7 km/h (2 Bft)
01.09.2026 18:25 22,0 °C 65 % 1020,5 hPa 0,0 mm 3,6 km/h (1 Bft) N-NW 334 ° 15,1 °C 22,0 °C 8,0 km/h (2 Bft)
01.09.2026 18:20 22,0 °C 65 % 1020,5 hPa 0,0 mm 2,7 km/h (1 Bft) N-NW 332 ° 15,1 °C 22,0 °C 9,7 km/h (2 Bft)
01.09.2026 18:15 22,2 °C 64 % 1020,5 hPa 0,0 mm 3,1 km/h (1 Bft) N-NW 331 ° 15,1 °C 22,2 °C 8,0 km/h (2 Bft)
01.09.2026 18:10 22,2 °C 63 % 1020,5 hPa 0,0 mm 4,6 km/h (1 Bft) W-NW 300 ° 14,8 °C 22,2 °C 11,3 km/h (2 Bft)
01.09.2026 18:05 22,3 °C 62 % 1020,5 hPa 0,0 mm 4,7 km/h (1 Bft) W-NW 302 ° 14,7 °C 22,3 °C 11,3 km/h (2 Bft)
01.09.2026 18:00 22,5 °C 62 % 1020,6 hPa 0,0 mm 4,1 km/h (1 Bft) NW 321 ° 14,8 °C 22,5 °C 9,7 km/h (2 Bft)
01.09.2026 17:55 22,7 °C 63 % 1020,5 hPa 0,0 mm 5,1 km/h (1 Bft) NW 315 ° 15,3 °C 22,7 °C 12,9 km/h (3 Bft)
01.09.2026 17:50 22,7 °C 62 % 1020,4 hPa 0,0 mm 5,8 km/h (2 Bft) W-NW 291 ° 15,0 °C 22,7 °C 12,9 km/h (3 Bft)
01.09.2026 17:45 22,6 °C 63 % 1020,5 hPa 0,0 mm 5,0 km/h (1 Bft) W-NW 291 ° 15,2 °C 22,6 °C 11,3 km/h (2 Bft)
01.09.2026 17:40 22,3 °C 62 % 1020,5 hPa 0,0 mm 4,7 km/h (1 Bft) NW 316 ° 14,7 °C 22,3 °C 9,7 km/h (2 Bft)
01.09.2026 17:35 22,1 °C 63 % 1020,4 hPa 0,0 mm 5,2 km/h (1 Bft) NW 308 ° 14,7 °C 22,1 °C 9,7 km/h (2 Bft)
01.09.2026 17:30 21,8 °C 65 % 1020,5 hPa 0,0 mm 3,8 km/h (1 Bft) N 360 ° 14,9 °C 21,8 °C 9,7 km/h (2 Bft)
01.09.2026 17:25 21,6 °C 65 % 1020,5 hPa 0,0 mm 3,7 km/h (1 Bft) NW 309 ° 14,7 °C 21,6 °C 11,3 km/h (2 Bft)
01.09.2026 17:20 21,6 °C 65 % 1020,4 hPa 0,0 mm 3,8 km/h (1 Bft) W-NW 284 ° 14,7 °C 21,6 °C 9,7 km/h (2 Bft)
01.09.2026 17:15 21,7 °C 65 % 1020,4 hPa 0,0 mm 5,6 km/h (1 Bft) NW 311 ° 14,8 °C 21,7 °C 12,9 km/h (3 Bft)
01.09.2026 17:10 21,9 °C 63 % 1020,5 hPa 0,0 mm 6,1 km/h (2 Bft) N 360 ° 14,5 °C 21,9 °C 11,3 km/h (2 Bft)
01.09.2026 17:05 22,3 °C 63 % 1020,5 hPa 0,0 mm 5,4 km/h (1 Bft) N-NW 336 ° 14,9 °C 22,3 °C 12,9 km/h (3 Bft)
01.09.2026 17:00 22,3 °C 64 % 1020,4 hPa 0,0 mm 4,2 km/h (1 Bft) NW 319 ° 15,2 °C 22,3 °C 9,7 km/h (2 Bft)
01.09.2026 16:55 21,9 °C 66 % 1020,4 hPa 0,0 mm 4,8 km/h (1 Bft) NO 56 ° 15,3 °C 21,9 °C 9,7 km/h (2 Bft)
01.09.2026 16:50 21,6 °C 67 % 1020,5 hPa 0,0 mm 4,1 km/h (1 Bft) NW 308 ° 15,2 °C 21,6 °C 12,9 km/h (3 Bft)
01.09.2026 16:45 21,6 °C 67 % 1020,5 hPa 0,0 mm 3,9 km/h (1 Bft) NW 304 ° 15,2 °C 21,6 °C 8,0 km/h (2 Bft)
01.09.2026 16:40 21,7 °C 66 % 1020,5 hPa 0,0 mm 5,6 km/h (1 Bft) NW 324 ° 15,1 °C 21,7 °C 14,5 km/h (3 Bft)
01.09.2026 16:35 21,9 °C 66 % 1020,5 hPa 0,0 mm 5,6 km/h (1 Bft) NW 320 ° 15,3 °C 21,9 °C 16,1 km/h (3 Bft)
01.09.2026 16:30 22,0 °C 65 % 1020,5 hPa 0,0 mm 6,3 km/h (2 Bft) NW 319 ° 15,1 °C 22,0 °C 12,9 km/h (3 Bft)
01.09.2026 16:25 21,8 °C 64 % 1020,5 hPa 0,0 mm 6,6 km/h (2 Bft) N-NW 332 ° 14,7 °C 21,7 °C 12,9 km/h (3 Bft)
01.09.2026 16:20 21,8 °C 66 % 1020,6 hPa 0,0 mm 5,0 km/h (1 Bft) N-NW 331 ° 15,2 °C 21,8 °C 12,9 km/h (3 Bft)
01.09.2026 16:15 21,7 °C 65 % 1020,5 hPa 0,0 mm 5,9 km/h (2 Bft) N-NW 327 ° 14,8 °C 21,7 °C 14,5 km/h (3 Bft)
01.09.2026 16:10 21,6 °C 66 % 1020,6 hPa 0,0 mm 6,4 km/h (2 Bft) N-NW 330 ° 15,0 °C 21,6 °C 12,9 km/h (3 Bft)
01.09.2026 16:05 21,6 °C 66 % 1020,6 hPa 0,0 mm 6,1 km/h (2 Bft) N-NW 327 ° 15,0 °C 21,6 °C 14,5 km/h (3 Bft)
01.09.2026 16:00 21,5 °C 65 % 1020,6 hPa 0,0 mm 5,1 km/h (1 Bft) W-NW 293 ° 14,6 °C 21,5 °C 14,5 km/h (3 Bft)
01.09.2026 15:55 21,4 °C 66 % 1020,6 hPa 0,0 mm 6,6 km/h (2 Bft) NW 304 ° 14,8 °C 21,3 °C 16,1 km/h (3 Bft)
01.09.2026 15:50 21,1 °C 65 % 1020,6 hPa 0,0 mm 8,4 km/h (2 Bft) W-NW 299 ° 14,3 °C 20,4 °C 17,7 km/h (3 Bft)
01.09.2026 15:45 20,9 °C 68 % 1020,6 hPa 0,0 mm 7,7 km/h (2 Bft) NW 314 ° 14,8 °C 20,4 °C 12,9 km/h (3 Bft)
01.09.2026 15:40 20,7 °C 67 % 1020,7 hPa 0,0 mm 6,9 km/h (2 Bft) W 268 ° 14,3 °C 20,5 °C 12,9 km/h (3 Bft)
01.09.2026 15:35 20,7 °C 69 % 1020,8 hPa 0,0 mm 8,1 km/h (2 Bft) W-NW 302 ° 14,8 °C 20,0 °C 17,7 km/h (3 Bft)
01.09.2026 15:30 20,6 °C 71 % 1020,8 hPa 0,0 mm 5,5 km/h (1 Bft) NW 311 ° 15,2 °C 20,6 °C 14,5 km/h (3 Bft)
01.09.2026 15:25 20,5 °C 74 % 1020,8 hPa 0,0 mm 4,0 km/h (1 Bft) N-NW 329 ° 15,7 °C 20,5 °C 11,3 km/h (2 Bft)
01.09.2026 15:20 20,4 °C 72 % 1020,7 hPa 0,0 mm 6,7 km/h (2 Bft) N-NW 335 ° 15,2 °C 20,3 °C 14,5 km/h (3 Bft)
01.09.2026 15:15 20,5 °C 73 % 1020,8 hPa 0,0 mm 7,1 km/h (2 Bft) N-NW 327 ° 15,5 °C 20,2 °C 14,5 km/h (3 Bft)
01.09.2026 15:10 20,6 °C 73 % 1020,8 hPa 0,0 mm 6,3 km/h (2 Bft) NW 326 ° 15,6 °C 20,6 °C 12,9 km/h (3 Bft)
01.09.2026 15:05 20,8 °C 72 % 1020,7 hPa 0,0 mm 5,1 km/h (1 Bft) NW 323 ° 15,6 °C 20,8 °C 16,1 km/h (3 Bft)
01.09.2026 15:00 21,1 °C 72 % 1020,8 hPa 0,0 mm 8,0 km/h (2 Bft) NW 322 ° 15,8 °C 20,5 °C 14,5 km/h (3 Bft)
01.09.2026 14:55 21,4 °C 71 % 1020,8 hPa 0,0 mm 6,5 km/h (2 Bft) W-NW 298 ° 15,9 °C 21,4 °C 19,3 km/h (3 Bft)
01.09.2026 14:50 21,7 °C 70 % 1020,7 hPa 0,0 mm 4,9 km/h (1 Bft) N-NO 23 ° 16,0 °C 21,7 °C 12,9 km/h (3 Bft)
01.09.2026 14:45 22,0 °C 68 % 1020,6 hPa 0,0 mm 6,8 km/h (2 Bft) NW 322 ° 15,8 °C 21,9 °C 14,5 km/h (3 Bft)
01.09.2026 14:40 22,4 °C 65 % 1020,4 hPa 0,0 mm 6,7 km/h (2 Bft) NW 320 ° 15,5 °C 22,3 °C 16,1 km/h (3 Bft)
01.09.2026 14:35 22,2 °C 65 % 1020,5 hPa 0,0 mm 4,3 km/h (1 Bft) NW 326 ° 15,3 °C 22,2 °C 8,0 km/h (2 Bft)
01.09.2026 14:30 21,8 °C 65 % 1020,7 hPa 0,0 mm 3,6 km/h (1 Bft) NW 304 ° 14,9 °C 21,8 °C 8,0 km/h (2 Bft)
01.09.2026 14:25 21,9 °C 64 % 1020,7 hPa 0,0 mm 4,5 km/h (1 Bft) W-NW 299 ° 14,8 °C 21,9 °C 8,0 km/h (2 Bft)
01.09.2026 14:20 22,1 °C 64 % 1020,6 hPa 0,0 mm 4,5 km/h (1 Bft) NW 306 ° 15,0 °C 22,1 °C 11,3 km/h (2 Bft)
01.09.2026 14:15 22,2 °C 64 % 1020,6 hPa 0,0 mm 3,9 km/h (1 Bft) N-NW 337 ° 15,1 °C 22,2 °C 8,0 km/h (2 Bft)
01.09.2026 14:10 22,5 °C 64 % 1020,6 hPa 0,0 mm 4,4 km/h (1 Bft) NW 321 ° 15,3 °C 22,5 °C 11,3 km/h (2 Bft)
01.09.2026 14:00 21,6 °C 68 % 1020,6 hPa 0,0 mm 4,8 km/h (1 Bft) W-NW 292 ° 15,4 °C 21,6 °C 8,0 km/h (2 Bft)
01.09.2026 13:55 21,3 °C 68 % 1020,7 hPa 0,0 mm 4,8 km/h (1 Bft) W-NW 292 ° 15,1 °C 21,3 °C 11,3 km/h (2 Bft)
01.09.2026 13:50 21,4 °C 68 % 1020,7 hPa 0,0 mm 3,2 km/h (1 Bft) NW 315 ° 15,2 °C 21,4 °C 6,4 km/h (2 Bft)
01.09.2026 13:45 21,4 °C 67 % 1020,7 hPa 0,0 mm 1,6 km/h (1 Bft) NW 315 ° 15,0 °C 21,4 °C 6,4 km/h (2 Bft)
01.09.2026 13:40 21,6 °C 66 % 1020,7 hPa 0,0 mm 3,2 km/h (1 Bft) NW 315 ° 15,0 °C 21,6 °C 6,4 km/h (2 Bft)
01.09.2026 13:35 21,7 °C 66 % 1020,7 hPa 0,0 mm 4,8 km/h (1 Bft) NW 315 ° 15,1 °C 21,7 °C 8,0 km/h (2 Bft)
01.09.2026 13:30 22,0 °C 65 % 1020,7 hPa 0,0 mm 8,0 km/h (2 Bft) NW 315 ° 15,1 °C 21,5 °C 14,5 km/h (3 Bft)
01.09.2026 13:25 22,5 °C 65 % 1020,7 hPa 0,0 mm 7,3 km/h (2 Bft) W-NW 293 ° 15,6 °C 22,2 °C 17,7 km/h (3 Bft)
01.09.2026 13:20 22,4 °C 64 % 1020,6 hPa 0,0 mm 8,1 km/h (2 Bft) W-SW 248 ° 15,2 °C 21,8 °C 17,7 km/h (3 Bft)
01.09.2026 13:15 22,1 °C 63 % 1020,7 hPa 0,0 mm 10,2 km/h (2 Bft) W-SW 238 ° 14,7 °C 20,9 °C 20,9 km/h (4 Bft)
01.09.2026 13:10 22,1 °C 65 % 1020,7 hPa 0,0 mm 9,9 km/h (2 Bft) W-SW 252 ° 15,2 °C 21,0 °C 16,1 km/h (3 Bft)
01.09.2026 13:05 21,9 °C 68 % 1020,7 hPa 0,0 mm 6,8 km/h (2 Bft) W-SW 252 ° 15,7 °C 21,8 °C 14,5 km/h (3 Bft)
01.09.2026 13:00 21,5 °C 68 % 1020,7 hPa 0,0 mm 8,2 km/h (2 Bft) W-NW 291 ° 15,3 °C 20,9 °C 17,7 km/h (3 Bft)
01.09.2026 12:55 21,4 °C 65 % 1020,8 hPa 0,0 mm 8,7 km/h (2 Bft) W-NW 284 ° 14,5 °C 20,6 °C 16,1 km/h (3 Bft)
01.09.2026 12:50 21,7 °C 65 % 1020,6 hPa 0,0 mm 9,5 km/h (2 Bft) SW 231 ° 14,8 °C 20,7 °C 17,7 km/h (3 Bft)
01.09.2026 12:45 21,9 °C 66 % 1020,7 hPa 0,0 mm 9,4 km/h (2 Bft) W 268 ° 15,3 °C 20,9 °C 19,3 km/h (3 Bft)
01.09.2026 12:40 21,7 °C 67 % 1020,7 hPa 0,0 mm 6,1 km/h (2 Bft) W-NW 295 ° 15,3 °C 21,7 °C 14,5 km/h (3 Bft)
01.09.2026 12:35 21,6 °C 65 % 1020,7 hPa 0,0 mm 8,0 km/h (2 Bft) W 267 ° 14,7 °C 21,0 °C 16,1 km/h (3 Bft)
01.09.2026 12:30 21,7 °C 66 % 1020,6 hPa 0,0 mm 5,1 km/h (1 Bft) W 266 ° 15,1 °C 21,7 °C 14,5 km/h (3 Bft)
01.09.2026 12:25 21,6 °C 66 % 1020,6 hPa 0,0 mm 7,3 km/h (2 Bft) W 268 ° 15,0 °C 21,3 °C 14,5 km/h (3 Bft)
01.09.2026 12:20 21,5 °C 68 % 1020,7 hPa 0,0 mm 8,0 km/h (2 Bft) W 276 ° 15,3 °C 20,9 °C 14,5 km/h (3 Bft)
01.09.2026 12:15 21,7 °C 67 % 1020,7 hPa 0,0 mm 6,7 km/h (2 Bft) W-SW 242 ° 15,3 °C 21,6 °C 14,5 km/h (3 Bft)
01.09.2026 12:10 21,7 °C 68 % 1020,8 hPa 0,0 mm 7,3 km/h (2 Bft) S-SW 209 ° 15,5 °C 21,4 °C 14,5 km/h (3 Bft)
01.09.2026 12:05 21,5 °C 67 % 1020,8 hPa 0,0 mm 7,6 km/h (2 Bft) SW 234 ° 15,1 °C 21,1 °C 16,1 km/h (3 Bft)
01.09.2026 12:00 21,6 °C 68 % 1020,8 hPa 0,0 mm 6,3 km/h (2 Bft) SW 225 ° 15,4 °C 21,6 °C 14,5 km/h (3 Bft)
_ Min-Zeit 03:45 17:40 07:10 - 19:45 - - 03:20 03:20 19:45
Minimum _ 12,0 °C 62 % 1020,3 hPa - 0,0 km/h (0 Bft) - - 11,0 °C 12,1 °C 0,0 km/h (0 Bft)
_ Max-Zeit 17:50 03:30 10:45 12:00 13:15 - - 14:50 17:50 13:15
Maximum _ 22,7 °C 94 % 1021,9 hPa 0,0 mm 10,2 km/h
W-SW (2 Bft)
- - 16,0 °C 22,7 °C 20,9 km/h
SW (4 Bft)
Durchschnitt _ 17,3 °C 79 % 1020,9 hPa #0,0 mm 2,6 km/h (1 Bft) NW - 13,4 °C 17,3 °C 6,0 km/h (2 Bft)